createdAt,value
2023-01-29T00:00:20.215Z,17.55
2023-01-29T00:00:52.464Z,16.77
2023-01-29T00:01:24.539Z,17.08
2023-01-29T00:01:56.742Z,16.65
2023-01-29T00:02:28.674Z,16.95
2023-01-29T00:03:00.640Z,17.95
2023-01-29T00:03:33.535Z,16.40
2023-01-29T00:04:05.521Z,17.25
2023-01-29T00:04:37.408Z,16.08
2023-01-29T00:05:26.123Z,16.33
2023-01-29T00:05:59.895Z,15.38
2023-01-29T00:06:32.521Z,15.80
2023-01-29T00:07:04.417Z,17.67
2023-01-29T00:07:36.337Z,16.17
2023-01-29T00:08:08.237Z,16.92
2023-01-29T00:08:40.125Z,16.37
2023-01-29T00:09:13.554Z,15.98
2023-01-29T00:09:45.439Z,16.95
2023-01-29T00:10:18.120Z,17.75
2023-01-29T00:10:50.207Z,15.77
2023-01-29T00:11:24.097Z,16.35
2023-01-29T00:11:56.077Z,17.20
2023-01-29T00:12:28.129Z,16.70
2023-01-29T00:13:00.109Z,15.63
2023-01-29T00:13:32.519Z,16.08
2023-01-29T00:14:05.762Z,17.17
2023-01-29T00:14:37.627Z,16.20
2023-01-29T00:15:09.652Z,17.58
2023-01-29T00:15:41.577Z,16.62
2023-01-29T00:16:13.629Z,19.45
2023-01-29T00:16:45.882Z,18.85
2023-01-29T00:17:17.883Z,19.12
2023-01-29T00:17:49.894Z,18.58
2023-01-29T00:18:22.078Z,19.20
2023-01-29T00:18:53.974Z,18.70
2023-01-29T00:19:25.865Z,18.60
2023-01-29T00:19:57.724Z,21.35
2023-01-29T00:20:30.304Z,18.80
2023-01-29T00:21:02.305Z,19.08
2023-01-29T00:21:34.695Z,19.45
2023-01-29T00:22:06.957Z,18.73
2023-01-29T00:22:39.005Z,20.85
2023-01-29T00:23:10.924Z,17.33
2023-01-29T00:23:43.696Z,18.67
2023-01-29T00:24:15.743Z,18.20
2023-01-29T00:24:47.658Z,17.75
2023-01-29T00:25:19.543Z,18.08
2023-01-29T00:25:51.441Z,17.77
2023-01-29T00:26:23.528Z,19.23
2023-01-29T00:26:55.471Z,18.92
2023-01-29T00:27:27.676Z,19.12
2023-01-29T00:27:59.670Z,18.45
2023-01-29T00:28:31.950Z,17.67
2023-01-29T00:29:03.840Z,17.00
2023-01-29T00:29:35.829Z,17.45
2023-01-29T00:30:16.591Z,17.00
2023-01-29T00:30:48.799Z,17.67
2023-01-29T00:31:23.763Z,17.70
2023-01-29T00:31:55.882Z,18.00
2023-01-29T00:32:28.125Z,18.65
2023-01-29T00:32:59.993Z,17.62
2023-01-29T00:33:32.548Z,18.73
2023-01-29T00:34:04.435Z,17.67
2023-01-29T00:34:36.342Z,18.58
2023-01-29T00:35:09.241Z,17.52
2023-01-29T00:35:42.043Z,20.15
2023-01-29T00:36:15.630Z,18.87
2023-01-29T00:36:47.538Z,20.25
2023-01-29T00:37:19.406Z,18.87
2023-01-29T00:37:52.353Z,18.27
2023-01-29T00:38:24.214Z,19.25
2023-01-29T00:38:58.884Z,18.27
2023-01-29T00:39:47.395Z,17.40
2023-01-29T00:40:20.080Z,17.37
2023-01-29T00:41:10.630Z,17.25
2023-01-29T00:42:01.324Z,17.67
2023-01-29T00:42:51.739Z,18.35
2023-01-29T00:43:43.374Z,17.83
2023-01-29T00:44:38.343Z,18.02
2023-01-29T00:45:11.728Z,17.58
2023-01-29T00:45:43.670Z,18.25
2023-01-29T00:46:16.044Z,17.83
2023-01-29T00:46:48.134Z,17.25
2023-01-29T00:47:35.852Z,17.20
2023-01-29T00:48:07.864Z,17.58
2023-01-29T00:48:40.060Z,18.08
2023-01-29T00:49:12.260Z,17.62
2023-01-29T00:49:44.133Z,17.30
2023-01-29T00:50:16.775Z,19.15
2023-01-29T00:50:48.994Z,17.23
2023-01-29T00:51:20.924Z,18.08
2023-01-29T00:52:11.609Z,17.35
2023-01-29T00:52:43.641Z,17.12
2023-01-29T00:53:15.510Z,17.60
2023-01-29T00:53:48.033Z,18.20
2023-01-29T00:54:19.927Z,17.60
2023-01-29T00:54:53.066Z,19.08
2023-01-29T00:55:25.003Z,18.52
2023-01-29T00:55:56.915Z,17.33
2023-01-29T00:56:30.363Z,18.83
2023-01-29T00:57:03.936Z,18.27
2023-01-29T00:57:38.320Z,19.75
2023-01-29T00:58:10.492Z,18.55
2023-01-29T00:58:42.374Z,18.60
2023-01-29T00:59:14.697Z,18.27
2023-01-29T00:59:46.752Z,18.40
2023-01-29T01:00:19.504Z,20.10
2023-01-29T01:00:51.870Z,18.35
2023-01-29T01:01:42.833Z,18.05
2023-01-29T01:02:34.963Z,19.77
2023-01-29T01:03:10.747Z,18.70
2023-01-29T01:03:42.884Z,19.52
2023-01-29T01:04:15.384Z,17.83
2023-01-29T01:04:47.430Z,18.90
2023-01-29T01:05:19.783Z,19.90
2023-01-29T01:06:02.113Z,20.05
2023-01-29T01:06:34.202Z,18.92
2023-01-29T01:07:06.945Z,18.75
2023-01-29T01:07:38.854Z,19.45
2023-01-29T01:08:31.154Z,19.77
2023-01-29T01:09:22.067Z,20.62
2023-01-29T01:10:13.246Z,20.55
2023-01-29T01:10:45.223Z,19.62
2023-01-29T01:11:17.671Z,19.70
2023-01-29T01:11:49.838Z,20.08
2023-01-29T01:12:22.315Z,18.27
2023-01-29T01:13:03.141Z,19.58
2023-01-29T01:14:07.234Z,19.92
2023-01-29T01:14:43.097Z,19.20
2023-01-29T01:15:15.366Z,19.00
2023-01-29T01:15:47.388Z,17.70
2023-01-29T01:16:20.692Z,19.10
2023-01-29T01:16:52.850Z,19.40
2023-01-29T01:17:25.124Z,18.67
2023-01-29T01:17:59.342Z,17.05
2023-01-29T01:18:31.758Z,18.27
2023-01-29T01:19:04.925Z,19.05
2023-01-29T01:19:37.147Z,17.73
2023-01-29T01:20:10.133Z,19.15
2023-01-29T01:20:42.614Z,18.50
2023-01-29T01:21:14.537Z,17.95
2023-01-29T01:21:48.353Z,18.12
2023-01-29T01:22:20.599Z,17.12
2023-01-29T01:22:54.681Z,17.92
2023-01-29T01:23:28.011Z,18.98
2023-01-29T01:24:00.207Z,19.60
2023-01-29T01:24:32.709Z,19.00
2023-01-29T01:25:05.125Z,19.65
2023-01-29T01:25:37.044Z,19.20
2023-01-29T01:26:10.967Z,20.15
2023-01-29T01:26:43.351Z,22.73
2023-01-29T01:27:15.351Z,20.92
2023-01-29T01:27:47.722Z,20.70
2023-01-29T01:28:19.611Z,20.98
2023-01-29T01:28:52.014Z,19.23
2023-01-29T01:29:24.586Z,18.83
2023-01-29T01:29:56.571Z,20.10
2023-01-29T01:30:28.825Z,19.40
2023-01-29T01:31:11.822Z,19.48
2023-01-29T01:31:44.071Z,17.17
2023-01-29T01:32:16.053Z,17.42
2023-01-29T01:32:49.282Z,18.70
2023-01-29T01:33:21.475Z,18.17
2023-01-29T01:33:55.618Z,18.75
2023-01-29T01:34:27.578Z,17.23
2023-01-29T01:34:59.454Z,18.10
2023-01-29T01:35:31.396Z,17.65
2023-01-29T01:36:03.569Z,17.87
2023-01-29T01:36:35.463Z,18.60
2023-01-29T01:37:07.891Z,18.62
2023-01-29T01:37:39.824Z,17.87
2023-01-29T01:38:11.943Z,16.55
2023-01-29T01:38:46.616Z,18.73
2023-01-29T01:39:18.482Z,18.20
2023-01-29T01:39:50.569Z,18.73
2023-01-29T01:40:25.077Z,17.27
2023-01-29T01:40:56.983Z,16.92
2023-01-29T01:41:31.274Z,17.83
2023-01-29T01:42:03.209Z,17.27
2023-01-29T01:42:35.378Z,16.37
2023-01-29T01:43:10.029Z,17.00
2023-01-29T01:43:50.669Z,19.77
2023-01-29T01:44:53.520Z,16.62
2023-01-29T01:45:36.333Z,16.62
2023-01-29T01:46:09.513Z,17.42
2023-01-29T01:46:41.453Z,18.10
2023-01-29T01:47:14.107Z,18.75
2023-01-29T01:47:51.812Z,19.52
2023-01-29T01:48:27.315Z,19.60
2023-01-29T01:49:15.870Z,19.40
2023-01-29T01:49:48.339Z,18.20
2023-01-29T01:50:46.667Z,18.62
2023-01-29T01:51:20.733Z,17.67
2023-01-29T01:51:53.141Z,18.58
2023-01-29T01:52:25.148Z,19.00
2023-01-29T01:53:02.783Z,18.95
2023-01-29T01:53:43.341Z,18.55
2023-01-29T01:54:28.721Z,20.73
2023-01-29T01:55:01.100Z,18.67
2023-01-29T01:55:35.526Z,19.35
2023-01-29T01:56:12.798Z,17.90
2023-01-29T01:56:50.160Z,20.25
2023-01-29T01:57:25.423Z,20.27
2023-01-29T01:58:05.862Z,19.33
2023-01-29T01:58:43.674Z,17.90
2023-01-29T01:59:19.085Z,19.85
2023-01-29T02:00:10.131Z,19.08
2023-01-29T02:00:45.327Z,17.87
2023-01-29T02:01:19.137Z,20.90
2023-01-29T02:01:54.352Z,19.25
2023-01-29T02:02:46.277Z,19.65
2023-01-29T02:03:38.514Z,20.15
2023-01-29T02:04:36.017Z,19.10
2023-01-29T02:05:27.663Z,19.02
2023-01-29T02:06:19.020Z,19.30
2023-01-29T02:07:12.635Z,19.37
2023-01-29T02:08:06.292Z,21.27
2023-01-29T02:09:14.287Z,20.70
2023-01-29T02:09:56.945Z,23.70
2023-01-29T02:10:37.738Z,24.30
2023-01-29T02:11:09.866Z,24.92
2023-01-29T02:11:41.801Z,25.30
2023-01-29T02:12:16.104Z,24.87
2023-01-29T02:12:48.027Z,26.05
2023-01-29T02:13:21.805Z,25.77
2023-01-29T02:13:54.044Z,25.15
2023-01-29T02:14:32.043Z,26.67
2023-01-29T02:15:07.076Z,25.45
2023-01-29T02:15:41.911Z,26.55
2023-01-29T02:16:13.829Z,26.55
2023-01-29T02:16:46.558Z,26.60
2023-01-29T02:17:20.727Z,26.02
2023-01-29T02:17:52.669Z,24.87
2023-01-29T02:18:24.663Z,25.85
2023-01-29T02:18:56.766Z,25.90
2023-01-29T02:19:55.915Z,24.63
2023-01-29T02:20:33.498Z,23.15
2023-01-29T02:21:52.659Z,22.50
2023-01-29T02:22:36.918Z,20.60
2023-01-29T02:23:17.026Z,22.35
2023-01-29T02:24:08.754Z,23.15
2023-01-29T02:25:17.671Z,21.95
2023-01-29T02:26:01.567Z,19.75
2023-01-29T02:27:04.652Z,21.67
2023-01-29T02:28:14.380Z,21.58
2023-01-29T02:28:53.458Z,21.37
2023-01-29T02:29:54.719Z,22.50
2023-01-29T02:30:36.410Z,21.10
2023-01-29T02:31:29.110Z,22.00
2023-01-29T02:32:06.976Z,22.20
2023-01-29T02:32:58.636Z,22.52
2023-01-29T02:33:42.876Z,22.70
2023-01-29T02:34:14.748Z,22.30
2023-01-29T02:35:09.837Z,23.00
2023-01-29T02:35:50.467Z,22.05
2023-01-29T02:36:51.436Z,22.10
2023-01-29T02:37:34.962Z,21.15
2023-01-29T02:38:09.839Z,21.60
2023-01-29T02:38:56.300Z,22.23
2023-01-29T02:39:46.982Z,22.33
2023-01-29T02:40:25.762Z,21.65
2023-01-29T02:41:12.912Z,20.67
2023-01-29T02:41:56.826Z,20.88
2023-01-29T02:42:35.915Z,21.35
2023-01-29T02:43:28.164Z,22.30
2023-01-29T02:44:06.446Z,22.37
2023-01-29T02:44:49.968Z,21.37
2023-01-29T02:45:35.367Z,22.75
2023-01-29T02:46:16.923Z,22.70
2023-01-29T02:47:03.688Z,23.55
2023-01-29T02:47:41.022Z,23.02
2023-01-29T02:48:18.425Z,21.12
2023-01-29T02:49:01.861Z,20.65
2023-01-29T02:49:44.154Z,19.83
2023-01-29T02:50:45.336Z,18.85
2023-01-29T02:51:29.995Z,19.23
2023-01-29T02:52:23.229Z,19.60
2023-01-29T02:53:09.168Z,19.52
2023-01-29T02:54:01.786Z,16.90
2023-01-29T02:54:55.578Z,18.83
2023-01-29T02:55:33.153Z,18.37
2023-01-29T02:56:19.461Z,17.95
2023-01-29T02:56:56.456Z,18.25
2023-01-29T02:57:37.395Z,17.58
2023-01-29T02:58:20.298Z,18.50
2023-01-29T02:59:01.973Z,18.27
2023-01-29T02:59:46.099Z,18.60
2023-01-29T03:00:22.760Z,17.48
2023-01-29T03:00:59.309Z,18.90
2023-01-29T03:01:48.275Z,18.08
2023-01-29T03:02:35.247Z,18.45
2023-01-29T03:03:20.925Z,17.40
2023-01-29T03:04:01.005Z,19.50
2023-01-29T03:04:42.553Z,18.08
2023-01-29T03:05:25.505Z,16.77
2023-01-29T03:06:22.234Z,18.95
2023-01-29T03:07:03.370Z,19.05
2023-01-29T03:07:47.034Z,18.92
2023-01-29T03:08:36.925Z,18.25
2023-01-29T03:09:22.946Z,18.35
2023-01-29T03:09:56.790Z,18.10
2023-01-29T03:10:42.204Z,18.45
2023-01-29T03:11:15.846Z,17.60
2023-01-29T03:11:54.698Z,17.77
2023-01-29T03:12:35.835Z,18.35
2023-01-29T03:13:15.253Z,17.75
2023-01-29T03:14:00.102Z,16.73
2023-01-29T03:14:56.534Z,16.80
2023-01-29T03:15:39.022Z,16.95
2023-01-29T03:16:16.490Z,16.85
2023-01-29T03:16:51.797Z,17.00
2023-01-29T03:17:29.777Z,16.67
2023-01-29T03:18:11.765Z,18.40
2023-01-29T03:18:50.903Z,18.27
2023-01-29T03:19:36.215Z,18.33
2023-01-29T03:20:16.556Z,18.90
2023-01-29T03:20:58.513Z,17.35
2023-01-29T03:21:51.353Z,17.23
2023-01-29T03:22:24.243Z,17.02
2023-01-29T03:23:01.816Z,16.98
2023-01-29T03:23:55.807Z,17.85
2023-01-29T03:25:09.170Z,17.48
2023-01-29T03:26:02.760Z,16.83
2023-01-29T03:26:54.014Z,17.80
2023-01-29T03:28:11.109Z,17.48
2023-01-29T03:29:05.005Z,17.77
2023-01-29T03:29:58.773Z,18.65
2023-01-29T03:30:55.375Z,15.82
2023-01-29T03:31:48.663Z,16.87
2023-01-29T03:32:24.711Z,17.55
2023-01-29T03:32:59.154Z,17.27
2023-01-29T03:33:36.117Z,17.15
2023-01-29T03:34:16.330Z,18.35
2023-01-29T03:34:54.160Z,18.00
2023-01-29T03:35:36.515Z,17.95
2023-01-29T03:36:14.958Z,17.62
2023-01-29T03:36:58.750Z,17.33
2023-01-29T03:37:43.080Z,18.08
2023-01-29T03:38:16.528Z,17.73
2023-01-29T03:38:48.820Z,17.73
2023-01-29T03:39:20.853Z,18.60
2023-01-29T03:39:54.635Z,17.70
2023-01-29T03:40:28.623Z,19.08
2023-01-29T03:41:12.199Z,16.95
2023-01-29T03:41:58.869Z,18.92
2023-01-29T03:42:53.199Z,17.55
2023-01-29T03:43:33.035Z,18.00
2023-01-29T03:44:24.987Z,18.40
2023-01-29T03:45:08.614Z,18.52
2023-01-29T03:45:56.005Z,18.17
2023-01-29T03:46:49.072Z,17.48
2023-01-29T03:47:30.657Z,18.87
2023-01-29T03:48:33.222Z,19.23
2023-01-29T03:49:08.511Z,17.85
2023-01-29T03:49:54.101Z,18.58
2023-01-29T03:50:44.951Z,19.27
2023-01-29T03:51:23.542Z,17.83
2023-01-29T03:52:35.092Z,18.05
2023-01-29T03:53:18.664Z,17.23
2023-01-29T03:54:21.147Z,18.62
2023-01-29T03:55:11.789Z,19.48
2023-01-29T03:55:59.692Z,19.23
2023-01-29T03:56:41.817Z,18.00
2023-01-29T03:57:38.540Z,18.02
2023-01-29T03:58:40.500Z,16.80
2023-01-29T03:59:31.847Z,20.37
2023-01-29T04:00:11.455Z,18.45
2023-01-29T04:01:11.195Z,17.30
2023-01-29T04:01:56.352Z,19.45
2023-01-29T04:02:42.693Z,17.23
2023-01-29T04:03:40.156Z,17.83
2023-01-29T04:04:23.360Z,17.58
2023-01-29T04:05:05.857Z,17.25
2023-01-29T04:05:58.637Z,17.90
2023-01-29T04:06:35.993Z,17.95
2023-01-29T04:07:17.688Z,18.30
2023-01-29T04:07:57.151Z,18.77
2023-01-29T04:08:31.471Z,17.00
2023-01-29T04:09:12.519Z,19.30
2023-01-29T04:10:02.150Z,19.60
2023-01-29T04:10:41.436Z,17.25
2023-01-29T04:11:18.506Z,17.87
2023-01-29T04:11:57.445Z,18.87
2023-01-29T04:12:39.191Z,17.42
2023-01-29T04:13:14.181Z,17.90
2023-01-29T04:13:47.235Z,18.92
2023-01-29T04:14:21.437Z,19.42
2023-01-29T04:14:57.158Z,17.85
2023-01-29T04:15:34.222Z,18.08
2023-01-29T04:16:10.442Z,19.35
2023-01-29T04:16:55.030Z,18.87
2023-01-29T04:17:34.701Z,17.70
2023-01-29T04:18:09.931Z,18.62
2023-01-29T04:18:48.341Z,19.12
2023-01-29T04:19:21.042Z,18.30
2023-01-29T04:19:53.869Z,18.25
2023-01-29T04:20:26.057Z,19.85
2023-01-29T04:20:59.788Z,19.85
2023-01-29T04:21:33.043Z,19.20
2023-01-29T04:22:15.416Z,18.98
2023-01-29T04:22:49.997Z,19.08
2023-01-29T04:23:26.384Z,19.42
2023-01-29T04:23:58.887Z,18.45
2023-01-29T04:24:31.538Z,18.90
2023-01-29T04:25:16.080Z,18.17
2023-01-29T04:25:58.456Z,17.40
2023-01-29T04:26:46.832Z,19.08
2023-01-29T04:27:29.262Z,18.55
2023-01-29T04:28:11.420Z,18.50
2023-01-29T04:28:47.531Z,17.30
2023-01-29T04:29:51.407Z,17.87
2023-01-29T04:30:33.506Z,18.00
2023-01-29T04:31:10.819Z,16.85
2023-01-29T04:32:21.827Z,16.60
2023-01-29T04:33:02.235Z,18.42
2023-01-29T04:33:46.456Z,17.73
2023-01-29T04:35:04.346Z,17.75
2023-01-29T04:36:27.396Z,17.65
2023-01-29T04:37:16.867Z,18.95
2023-01-29T04:38:22.045Z,18.40
2023-01-29T04:39:12.047Z,18.80
2023-01-29T04:39:53.396Z,17.92
2023-01-29T04:40:46.969Z,18.95
2023-01-29T04:41:21.298Z,18.55
2023-01-29T04:42:09.487Z,17.77
2023-01-29T04:42:50.203Z,18.80
2023-01-29T04:43:41.605Z,17.30
2023-01-29T04:44:22.934Z,17.42
2023-01-29T04:45:20.391Z,18.65
2023-01-29T04:46:17.540Z,18.33
2023-01-29T04:47:10.758Z,18.60
2023-01-29T04:48:04.381Z,18.65
2023-01-29T04:48:43.869Z,18.17
2023-01-29T04:49:20.016Z,18.52
2023-01-29T04:49:57.599Z,18.27
2023-01-29T04:50:40.243Z,18.67
2023-01-29T04:51:30.523Z,18.40
2023-01-29T04:52:34.433Z,18.23
2023-01-29T04:53:18.750Z,17.98
2023-01-29T04:54:04.928Z,17.27
2023-01-29T04:54:51.938Z,18.85
2023-01-29T04:55:42.913Z,19.25
2023-01-29T04:56:51.437Z,17.15
2023-01-29T04:57:33.967Z,18.02
2023-01-29T04:58:14.414Z,17.83
2023-01-29T04:58:59.568Z,17.92
2023-01-29T04:59:36.883Z,18.42
2023-01-29T05:00:19.743Z,18.50
2023-01-29T05:00:54.421Z,17.62
2023-01-29T05:01:30.270Z,18.40
2023-01-29T05:02:04.356Z,16.98
2023-01-29T05:02:41.731Z,17.92
2023-01-29T05:03:15.414Z,18.05
2023-01-29T05:03:51.122Z,18.92
2023-01-29T05:04:24.630Z,17.60
2023-01-29T05:04:58.790Z,17.50
2023-01-29T05:05:30.943Z,17.27
2023-01-29T05:06:04.217Z,18.55
2023-01-29T05:06:38.144Z,18.77
2023-01-29T05:07:14.049Z,18.85
2023-01-29T05:07:47.705Z,18.75
2023-01-29T05:08:23.074Z,19.50
2023-01-29T05:08:56.850Z,19.10
2023-01-29T05:09:29.408Z,20.08
2023-01-29T05:10:01.444Z,18.62
2023-01-29T05:10:35.161Z,18.50
2023-01-29T05:11:07.495Z,19.48
2023-01-29T05:11:40.031Z,19.37
2023-01-29T05:12:14.494Z,19.58
2023-01-29T05:12:53.007Z,19.77
2023-01-29T05:13:27.148Z,17.70
2023-01-29T05:14:02.427Z,18.33
2023-01-29T05:14:35.568Z,18.37
2023-01-29T05:15:16.173Z,18.20
2023-01-29T05:15:54.184Z,18.67
2023-01-29T05:16:42.064Z,19.70
2023-01-29T05:17:19.588Z,18.95
2023-01-29T05:17:53.801Z,18.40
2023-01-29T05:18:25.756Z,21.70
2023-01-29T05:18:57.648Z,20.50
2023-01-29T05:19:29.544Z,19.77
2023-01-29T05:20:01.479Z,20.37
2023-01-29T05:20:36.523Z,19.12
2023-01-29T05:21:10.057Z,19.67
2023-01-29T05:21:45.588Z,18.50
2023-01-29T05:22:22.651Z,18.67
2023-01-29T05:22:54.693Z,17.50
2023-01-29T05:23:27.006Z,18.73
2023-01-29T05:24:12.389Z,19.30
2023-01-29T05:24:44.927Z,17.17
2023-01-29T05:25:26.502Z,17.42
2023-01-29T05:25:58.507Z,18.85
2023-01-29T05:26:49.116Z,18.75
2023-01-29T05:27:48.044Z,18.00
2023-01-29T05:28:19.919Z,17.40
2023-01-29T05:28:51.835Z,17.85
2023-01-29T05:29:23.905Z,19.85
2023-01-29T05:29:57.581Z,19.65
2023-01-29T05:30:29.782Z,18.92
2023-01-29T05:31:01.746Z,19.58
2023-01-29T05:31:33.779Z,19.73
2023-01-29T05:32:05.914Z,18.90
2023-01-29T05:32:39.737Z,19.87
2023-01-29T05:33:20.679Z,19.37
2023-01-29T05:33:52.623Z,18.37
2023-01-29T05:34:24.615Z,17.92
2023-01-29T05:34:56.525Z,18.75
2023-01-29T05:35:29.537Z,18.45
2023-01-29T05:36:01.492Z,18.62
2023-01-29T05:36:33.393Z,19.12
2023-01-29T05:37:05.378Z,19.08
2023-01-29T05:37:37.462Z,19.30
2023-01-29T05:38:10.027Z,18.87
2023-01-29T05:38:41.890Z,19.95
2023-01-29T05:39:13.819Z,18.55
2023-01-29T05:39:45.720Z,16.87
2023-01-29T05:40:18.102Z,18.62
2023-01-29T05:40:50.459Z,19.80
2023-01-29T05:41:22.380Z,18.65
2023-01-29T05:41:54.355Z,18.40
2023-01-29T05:42:26.245Z,17.92
2023-01-29T05:42:58.263Z,18.62
2023-01-29T05:43:30.500Z,18.37
2023-01-29T05:44:02.455Z,18.85
2023-01-29T05:44:34.342Z,17.83
2023-01-29T05:45:06.876Z,18.12
2023-01-29T05:45:38.907Z,17.35
2023-01-29T05:46:10.825Z,19.40
2023-01-29T05:46:43.849Z,17.50
2023-01-29T05:47:19.749Z,19.35
2023-01-29T05:47:55.223Z,18.30
2023-01-29T05:48:29.062Z,18.08
2023-01-29T05:49:01.294Z,18.37
2023-01-29T05:49:33.249Z,17.55
2023-01-29T05:50:06.421Z,17.52
2023-01-29T05:50:38.333Z,18.25
2023-01-29T05:51:10.342Z,18.87
2023-01-29T05:51:42.235Z,18.73
2023-01-29T05:52:14.141Z,17.08
2023-01-29T05:52:46.067Z,16.90
2023-01-29T05:53:18.132Z,17.05
2023-01-29T05:53:50.426Z,18.25
2023-01-29T05:54:22.841Z,19.08
2023-01-29T05:54:54.846Z,17.92
2023-01-29T05:55:29.548Z,18.75
2023-01-29T05:56:02.792Z,18.15
2023-01-29T05:56:34.670Z,18.83
2023-01-29T05:57:06.530Z,19.10
2023-01-29T05:57:40.604Z,17.95
2023-01-29T05:58:13.381Z,19.85
2023-01-29T05:58:45.313Z,16.98
2023-01-29T05:59:17.208Z,18.67
2023-01-29T05:59:49.559Z,18.92
2023-01-29T06:00:22.340Z,19.33
2023-01-29T06:00:54.712Z,18.98
2023-01-29T06:01:26.940Z,17.90
2023-01-29T06:01:58.905Z,17.20
2023-01-29T06:02:31.711Z,19.10
2023-01-29T06:03:03.724Z,19.92
2023-01-29T06:03:35.687Z,19.58
2023-01-29T06:04:07.586Z,19.58
2023-01-29T06:04:39.475Z,19.92
2023-01-29T06:05:11.353Z,19.58
2023-01-29T06:05:43.262Z,19.85
2023-01-29T06:06:15.932Z,20.00
2023-01-29T06:06:47.838Z,19.73
2023-01-29T06:07:19.895Z,19.73
2023-01-29T06:07:51.943Z,19.50
2023-01-29T06:08:23.825Z,19.98
2023-01-29T06:08:56.329Z,18.62
2023-01-29T06:09:28.229Z,18.67
2023-01-29T06:10:00.191Z,19.12
2023-01-29T06:10:32.079Z,19.67
2023-01-29T06:11:04.721Z,19.75
2023-01-29T06:11:36.998Z,18.75
2023-01-29T06:12:09.792Z,19.00
2023-01-29T06:12:42.666Z,17.87
2023-01-29T06:13:14.583Z,18.48
2023-01-29T06:13:46.526Z,19.87
2023-01-29T06:14:18.442Z,18.08
2023-01-29T06:14:50.793Z,18.42
2023-01-29T06:15:22.823Z,18.67
2023-01-29T06:15:54.765Z,17.85
2023-01-29T06:16:26.854Z,19.73
2023-01-29T06:16:59.464Z,18.92
2023-01-29T06:17:31.355Z,18.50
2023-01-29T06:18:03.295Z,19.87
2023-01-29T06:18:36.585Z,19.17
2023-01-29T06:19:08.473Z,19.90
2023-01-29T06:19:40.432Z,21.12
2023-01-29T06:20:13.656Z,20.02
2023-01-29T06:20:45.590Z,19.80
2023-01-29T06:21:19.940Z,19.98
2023-01-29T06:21:52.071Z,19.00
2023-01-29T06:22:24.298Z,17.98
2023-01-29T06:22:56.175Z,19.87
2023-01-29T06:23:28.071Z,19.58
2023-01-29T06:24:00.004Z,19.50
2023-01-29T06:24:32.890Z,20.35
2023-01-29T06:25:05.342Z,20.23
2023-01-29T06:25:37.245Z,19.75
2023-01-29T06:26:12.192Z,20.62
2023-01-29T06:26:44.489Z,17.62
2023-01-29T06:27:16.401Z,19.48
2023-01-29T06:27:51.368Z,20.17
2023-01-29T06:28:23.237Z,18.27
2023-01-29T06:28:55.227Z,19.00
2023-01-29T06:29:27.166Z,20.70
2023-01-29T06:29:59.048Z,18.25
2023-01-29T06:30:31.945Z,20.73
2023-01-29T06:31:23.358Z,18.70
2023-01-29T06:31:57.711Z,18.87
2023-01-29T06:32:29.752Z,18.98
2023-01-29T06:33:02.774Z,20.42
2023-01-29T06:33:35.046Z,19.50
2023-01-29T06:34:07.961Z,18.83
2023-01-29T06:34:39.900Z,18.73
2023-01-29T06:35:11.866Z,19.60
2023-01-29T06:35:43.753Z,21.62
2023-01-29T06:36:15.834Z,20.88
2023-01-29T06:36:47.707Z,21.30
2023-01-29T06:37:19.704Z,21.45
2023-01-29T06:37:51.664Z,21.87
2023-01-29T06:38:24.472Z,23.58
2023-01-29T06:38:56.385Z,22.17
2023-01-29T06:39:28.269Z,22.42
2023-01-29T06:40:00.184Z,23.77
2023-01-29T06:40:32.114Z,24.15
2023-01-29T06:41:12.319Z,23.48
2023-01-29T06:41:45.531Z,24.25
2023-01-29T06:42:17.483Z,23.92
2023-01-29T06:42:49.391Z,23.83
2023-01-29T06:43:22.195Z,25.65
2023-01-29T06:43:54.404Z,23.20
2023-01-29T06:44:26.522Z,23.95
2023-01-29T06:44:58.430Z,22.87
2023-01-29T06:45:30.418Z,22.83
2023-01-29T06:46:02.470Z,22.02
2023-01-29T06:46:34.775Z,21.70
2023-01-29T06:47:06.710Z,22.77
2023-01-29T06:47:38.639Z,22.10
2023-01-29T06:48:10.532Z,20.42
2023-01-29T06:48:43.061Z,21.98
2023-01-29T06:49:15.427Z,21.05
2023-01-29T06:49:47.339Z,22.10
2023-01-29T06:50:19.529Z,22.77
2023-01-29T06:50:51.993Z,21.60
2023-01-29T06:51:24.613Z,20.58
2023-01-29T06:51:56.521Z,20.67
2023-01-29T06:52:29.142Z,20.85
2023-01-29T06:53:01.026Z,21.02
2023-01-29T06:53:34.641Z,21.52
2023-01-29T06:54:08.350Z,21.85
2023-01-29T06:54:40.716Z,20.12
2023-01-29T06:55:12.779Z,19.23
2023-01-29T06:55:51.650Z,22.30
2023-01-29T06:56:24.441Z,20.27
2023-01-29T06:56:56.451Z,21.00
2023-01-29T06:57:30.135Z,19.90
2023-01-29T06:58:09.755Z,21.23
2023-01-29T06:58:43.555Z,21.12
2023-01-29T06:59:15.597Z,20.05
2023-01-29T06:59:47.905Z,21.33
2023-01-29T07:00:20.548Z,21.23
2023-01-29T07:00:52.729Z,20.70
2023-01-29T07:01:35.711Z,21.60
2023-01-29T07:02:07.872Z,21.83
2023-01-29T07:02:39.813Z,20.70
2023-01-29T07:03:12.274Z,21.02
2023-01-29T07:03:44.488Z,21.05
2023-01-29T07:04:16.475Z,22.40
2023-01-29T07:04:48.719Z,21.15
2023-01-29T07:05:20.643Z,21.12
2023-01-29T07:05:53.846Z,21.90
2023-01-29T07:06:29.210Z,20.88
2023-01-29T07:07:01.208Z,20.62
2023-01-29T07:07:35.862Z,20.50
2023-01-29T07:08:09.564Z,20.42
2023-01-29T07:08:41.574Z,21.20
2023-01-29T07:09:16.332Z,20.75
2023-01-29T07:09:48.693Z,21.95
2023-01-29T07:10:21.510Z,21.02
2023-01-29T07:10:53.500Z,20.33
2023-01-29T07:11:25.574Z,20.60
2023-01-29T07:11:57.482Z,20.45
2023-01-29T07:12:29.479Z,21.25
2023-01-29T07:13:01.830Z,21.02
2023-01-29T07:13:34.028Z,21.30
2023-01-29T07:14:06.440Z,21.17
2023-01-29T07:14:38.526Z,20.62
2023-01-29T07:15:12.680Z,21.17
2023-01-29T07:15:44.681Z,19.62
2023-01-29T07:16:16.635Z,21.33
2023-01-29T07:16:48.549Z,20.12
2023-01-29T07:17:21.295Z,20.30
2023-01-29T07:18:05.374Z,20.33
2023-01-29T07:18:37.514Z,19.37
2023-01-29T07:19:09.439Z,21.10
2023-01-29T07:19:41.459Z,20.80
2023-01-29T07:20:13.883Z,19.60
2023-01-29T07:20:46.039Z,21.80
2023-01-29T07:21:18.194Z,20.50
2023-01-29T07:21:50.311Z,18.73
2023-01-29T07:22:22.283Z,19.60
2023-01-29T07:22:54.541Z,20.12
2023-01-29T07:23:26.464Z,19.48
2023-01-29T07:23:58.461Z,19.90
2023-01-29T07:24:30.491Z,20.65
2023-01-29T07:25:02.531Z,19.23
2023-01-29T07:25:35.126Z,20.73
2023-01-29T07:26:07.383Z,19.87
2023-01-29T07:26:39.308Z,19.90
2023-01-29T07:27:11.317Z,21.17
2023-01-29T07:27:43.490Z,20.65
2023-01-29T07:28:17.064Z,20.30
2023-01-29T07:28:49.502Z,21.30
2023-01-29T07:29:21.391Z,19.23
2023-01-29T07:29:53.427Z,19.73
2023-01-29T07:30:25.530Z,20.30
2023-01-29T07:30:59.018Z,21.12
2023-01-29T07:31:31.346Z,19.73
2023-01-29T07:32:03.569Z,19.05
2023-01-29T07:32:35.498Z,19.92
2023-01-29T07:33:08.914Z,19.70
2023-01-29T07:33:43.243Z,18.55
2023-01-29T07:34:15.214Z,19.20
2023-01-29T07:34:47.217Z,18.33
2023-01-29T07:35:19.314Z,19.42
2023-01-29T07:35:51.490Z,17.92
2023-01-29T07:36:24.254Z,19.92
2023-01-29T07:36:57.122Z,19.02
2023-01-29T07:37:28.992Z,18.67
2023-01-29T07:38:00.853Z,18.80
2023-01-29T07:38:32.756Z,19.40
2023-01-29T07:39:05.223Z,18.12
2023-01-29T07:39:37.063Z,17.48
2023-01-29T07:40:11.306Z,19.12
2023-01-29T07:40:43.280Z,19.48
2023-01-29T07:41:15.231Z,18.85
2023-01-29T07:41:48.473Z,19.80
2023-01-29T07:42:20.492Z,19.05
2023-01-29T07:42:58.439Z,18.65
2023-01-29T07:43:30.760Z,19.08
2023-01-29T07:44:02.671Z,18.30
2023-01-29T07:44:34.581Z,16.33
2023-01-29T07:45:07.377Z,18.42
2023-01-29T07:45:40.351Z,18.20
2023-01-29T07:46:12.445Z,17.00
2023-01-29T07:46:44.396Z,16.52
2023-01-29T07:47:17.371Z,17.37
2023-01-29T07:47:53.221Z,16.75
2023-01-29T07:48:25.169Z,16.77
2023-01-29T07:48:58.601Z,16.17
2023-01-29T07:49:30.873Z,15.55
2023-01-29T07:50:04.220Z,15.52
2023-01-29T07:50:36.368Z,17.23
2023-01-29T07:51:08.271Z,16.05
2023-01-29T07:51:40.210Z,15.80
2023-01-29T07:52:12.243Z,15.43
2023-01-29T07:52:44.571Z,15.55
2023-01-29T07:53:16.522Z,15.25
2023-01-29T07:53:48.688Z,15.27
2023-01-29T07:54:20.671Z,15.90
2023-01-29T07:54:52.615Z,15.20
2023-01-29T07:55:24.725Z,15.35
2023-01-29T07:55:57.403Z,16.65
2023-01-29T07:56:29.508Z,15.95
2023-01-29T07:57:01.391Z,15.68
2023-01-29T07:57:33.284Z,15.57
2023-01-29T07:58:05.556Z,15.30
2023-01-29T07:58:37.458Z,15.48
2023-01-29T07:59:09.395Z,15.70
2023-01-29T07:59:41.439Z,15.10